createdAt,value
2022-10-20T00:00:33.535Z,102425.06
2022-10-20T00:03:05.555Z,102418.00
2022-10-20T00:05:37.472Z,102427.72
2022-10-20T00:08:09.538Z,102429.50
2022-10-20T00:10:41.547Z,102419.84
2022-10-20T00:13:13.463Z,102411.09
2022-10-20T00:15:53.587Z,102411.09
2022-10-20T00:18:26.888Z,102405.88
2022-10-20T00:20:58.800Z,102406.69
2022-10-20T00:23:30.775Z,102410.06
2022-10-20T00:26:10.566Z,102400.59
2022-10-20T00:28:43.960Z,102403.25
2022-10-20T00:31:16.785Z,102392.75
2022-10-20T00:33:48.955Z,102392.72
2022-10-20T00:36:23.193Z,102381.38
2022-10-20T00:39:04.489Z,102389.19
2022-10-20T00:41:36.480Z,102383.88
2022-10-20T00:44:53.662Z,102376.06
2022-10-20T00:48:01.123Z,102369.06
2022-10-20T00:50:42.026Z,102365.50
2022-10-20T00:53:13.960Z,102358.38
2022-10-20T00:55:51.239Z,102364.44
2022-10-20T00:58:23.383Z,102360.00
2022-10-20T01:00:59.217Z,102350.44
2022-10-20T01:03:42.180Z,102344.47
2022-10-20T01:06:18.941Z,102338.31
2022-10-20T01:08:53.164Z,102341.72
2022-10-20T01:11:47.671Z,102344.28
2022-10-20T01:14:56.142Z,102341.84
2022-10-20T01:17:53.695Z,102320.91
2022-10-20T01:20:46.232Z,102314.69
2022-10-20T01:23:50.545Z,102313.75
2022-10-20T01:26:42.721Z,102319.75
2022-10-20T01:30:11.501Z,102317.00
2022-10-20T01:32:58.289Z,102309.16
2022-10-20T01:35:48.214Z,102311.78
2022-10-20T01:38:39.386Z,102311.06
2022-10-20T01:41:34.696Z,102296.31
2022-10-20T01:44:11.917Z,102300.00
2022-10-20T01:46:45.449Z,102299.97
2022-10-20T01:49:17.599Z,102307.81
2022-10-20T01:51:49.562Z,102306.81
2022-10-20T01:54:28.733Z,102301.75
2022-10-20T01:57:30.412Z,102302.56
2022-10-20T02:00:14.876Z,102291.97
2022-10-20T02:03:04.738Z,102290.97
2022-10-20T02:06:14.211Z,102284.69
2022-10-20T02:08:54.605Z,102277.72
2022-10-20T02:11:31.289Z,102269.72
2022-10-20T02:14:05.298Z,102263.69
2022-10-20T02:16:51.345Z,102263.75
2022-10-20T02:19:26.996Z,102251.78
2022-10-20T02:21:59.340Z,102253.41
2022-10-20T02:24:38.724Z,102244.63
2022-10-20T02:27:24.976Z,102241.91
2022-10-20T02:30:08.898Z,102241.69
2022-10-20T02:32:44.542Z,102245.06
2022-10-20T02:35:29.558Z,102235.38
2022-10-20T02:38:02.411Z,102241.34
2022-10-20T02:40:34.336Z,102242.06
2022-10-20T02:43:06.222Z,102237.59
2022-10-20T02:45:38.331Z,102237.41
2022-10-20T02:48:10.288Z,102220.78
2022-10-20T02:50:42.171Z,102225.06
2022-10-20T02:53:14.105Z,102223.19
2022-10-20T02:55:46.058Z,102227.47
2022-10-20T02:58:17.980Z,102228.28
2022-10-20T03:00:50.880Z,102228.28
2022-10-20T03:03:22.780Z,102229.03
2022-10-20T03:05:54.831Z,102229.94
2022-10-20T03:08:26.754Z,102233.28
2022-10-20T03:10:58.704Z,102220.28
2022-10-20T03:13:30.788Z,102218.50
2022-10-20T03:16:02.911Z,102213.13
2022-10-20T03:18:34.826Z,102204.41
2022-10-20T03:21:06.819Z,102208.78
2022-10-20T03:23:38.781Z,102192.22
2022-10-20T03:26:12.149Z,102196.63
2022-10-20T03:28:44.076Z,102195.72
2022-10-20T03:31:15.972Z,102191.41
2022-10-20T03:33:47.906Z,102196.75
2022-10-20T03:36:19.831Z,102188.00
2022-10-20T03:38:51.753Z,102182.03
2022-10-20T03:41:23.846Z,102185.66
2022-10-20T03:43:55.728Z,102171.16
2022-10-20T03:46:27.747Z,102168.44
2022-10-20T03:48:59.659Z,102161.50
2022-10-20T03:51:31.568Z,102151.00
2022-10-20T03:54:03.592Z,102142.44
2022-10-20T03:56:35.555Z,102150.31
2022-10-20T03:59:07.526Z,102131.19
2022-10-20T04:01:43.634Z,102141.78
2022-10-20T04:04:15.738Z,102131.41
2022-10-20T04:06:47.792Z,102130.44
2022-10-20T04:09:19.744Z,102132.34
2022-10-20T04:11:51.641Z,102131.38
2022-10-20T04:14:23.599Z,102120.03
2022-10-20T04:16:55.545Z,102127.22
2022-10-20T04:19:27.426Z,102115.88
2022-10-20T04:21:59.348Z,102115.88
2022-10-20T04:24:31.381Z,102103.59
2022-10-20T04:27:03.661Z,102097.69
2022-10-20T04:29:35.654Z,102097.72
2022-10-20T04:32:07.664Z,102100.53
2022-10-20T04:34:39.617Z,102092.59
2022-10-20T04:37:11.536Z,102085.63
2022-10-20T04:39:43.604Z,102064.63
2022-10-20T04:42:15.508Z,102056.81
2022-10-20T04:44:47.473Z,102054.06
2022-10-20T04:47:19.430Z,102054.09
2022-10-20T04:49:51.361Z,102050.53
2022-10-20T04:52:23.312Z,102067.22
2022-10-20T04:54:55.349Z,102062.78
2022-10-20T04:57:27.449Z,102061.03
2022-10-20T04:59:59.405Z,102051.38
2022-10-20T05:02:31.421Z,102056.47
2022-10-20T05:05:05.029Z,102042.59
2022-10-20T05:07:37.343Z,102039.97
2022-10-20T05:10:09.981Z,102034.00
2022-10-20T05:12:41.934Z,102041.81
2022-10-20T05:15:13.892Z,102042.69
2022-10-20T05:17:45.815Z,102032.28
2022-10-20T05:20:17.821Z,102028.94
2022-10-20T05:22:49.816Z,102019.34
2022-10-20T05:25:36.204Z,102014.94
2022-10-20T05:28:08.871Z,102016.69
2022-10-20T05:33:33.296Z,102009.84
2022-10-20T05:36:18.132Z,102002.66
2022-10-20T05:38:55.246Z,102005.22
2022-10-20T05:41:33.397Z,102006.00
2022-10-20T05:44:11.077Z,102002.53
2022-10-20T05:46:43.039Z,101999.97
2022-10-20T05:49:17.637Z,101997.50
2022-10-20T05:51:49.765Z,101995.66
2022-10-20T05:54:21.827Z,102000.13
2022-10-20T05:56:53.728Z,101995.63
2022-10-20T05:59:25.768Z,101993.06
2022-10-20T06:01:57.658Z,101993.78
2022-10-20T06:04:31.344Z,101994.63
2022-10-20T06:07:05.803Z,102000.59
2022-10-20T06:09:39.136Z,102003.34
2022-10-20T06:12:11.034Z,102004.53
2022-10-20T06:14:43.027Z,102003.59
2022-10-20T06:17:15.223Z,101998.41
2022-10-20T06:19:47.287Z,102000.91
2022-10-20T06:22:19.189Z,102009.66
2022-10-20T06:24:51.139Z,102007.03
2022-10-20T06:27:23.062Z,102001.88
2022-10-20T06:29:55.050Z,102002.00
2022-10-20T06:32:26.949Z,101983.84
2022-10-20T06:34:58.852Z,101985.72
2022-10-20T06:37:30.803Z,101987.59
2022-10-20T06:40:02.973Z,101979.03
2022-10-20T06:42:35.306Z,101980.72
2022-10-20T06:45:08.755Z,101969.63
2022-10-20T06:47:40.744Z,101960.97
2022-10-20T06:50:12.755Z,101959.41
2022-10-20T06:52:44.976Z,101954.16
2022-10-20T06:55:17.000Z,101961.94
2022-10-20T06:57:48.918Z,101970.66
2022-10-20T07:00:21.874Z,101962.75
2022-10-20T07:02:53.802Z,101954.94
2022-10-20T07:05:25.729Z,101954.22
2022-10-20T07:07:57.753Z,101957.84
2022-10-20T07:10:29.669Z,101949.41
2022-10-20T07:13:01.577Z,101939.06
2022-10-20T07:15:34.739Z,101930.34
2022-10-20T07:18:07.343Z,101930.44
2022-10-20T07:20:42.993Z,101926.16
2022-10-20T07:23:16.485Z,101926.34
2022-10-20T07:25:48.649Z,101922.06
2022-10-20T07:28:21.906Z,101908.38
2022-10-20T07:30:53.933Z,101907.66
2022-10-20T07:33:25.904Z,101892.88
2022-10-20T07:35:57.944Z,101909.31
2022-10-20T07:38:29.849Z,101899.94
2022-10-20T07:41:03.456Z,101900.84
2022-10-20T07:43:37.004Z,101901.75
2022-10-20T07:46:11.488Z,101903.59
2022-10-20T07:48:43.485Z,101899.34
2022-10-20T07:51:31.007Z,101889.94
2022-10-20T07:54:08.445Z,101879.78
2022-10-20T07:56:43.247Z,101884.84
2022-10-20T07:59:15.561Z,101885.81
2022-10-20T08:01:47.720Z,101882.31
2022-10-20T08:04:19.627Z,101883.13
2022-10-20T08:06:51.595Z,101878.81
2022-10-20T08:09:24.185Z,101877.88
2022-10-20T08:11:56.308Z,101880.50
2022-10-20T08:14:31.932Z,101881.22
2022-10-20T08:17:04.526Z,101880.50
2022-10-20T08:22:22.359Z,101874.34
2022-10-20T08:24:54.364Z,101872.78
2022-10-20T08:27:26.296Z,101881.59
2022-10-20T08:30:06.282Z,101882.63
2022-10-20T08:32:44.350Z,101877.59
2022-10-20T08:35:16.263Z,101868.09
2022-10-20T08:37:51.182Z,101868.09
2022-10-20T08:40:29.893Z,101860.38
2022-10-20T08:43:02.008Z,101861.34
2022-10-20T08:45:38.330Z,101863.09
2022-10-20T08:48:19.434Z,101846.34
2022-10-20T08:50:53.453Z,101841.13
2022-10-20T08:53:27.718Z,101842.94
2022-10-20T08:55:59.682Z,101840.44
2022-10-20T08:58:31.674Z,101850.13
2022-10-20T09:01:21.851Z,101836.13
2022-10-20T09:04:18.791Z,101836.09
2022-10-20T09:07:05.830Z,101828.31
2022-10-20T09:09:38.026Z,101833.66
2022-10-20T09:12:15.064Z,101834.59
2022-10-20T09:14:47.015Z,101831.09
2022-10-20T09:17:19.811Z,101822.53
2022-10-20T09:19:59.108Z,101820.97
2022-10-20T09:22:35.920Z,101816.81
2022-10-20T09:25:20.104Z,101799.47
2022-10-20T09:27:58.364Z,101796.03
2022-10-20T09:30:30.267Z,101786.44
2022-10-20T09:33:35.072Z,101787.34
2022-10-20T09:36:22.138Z,101797.03
2022-10-20T09:38:55.376Z,101785.66
2022-10-20T09:41:32.348Z,101777.72
2022-10-20T09:44:15.768Z,101769.84
2022-10-20T09:46:51.676Z,101761.97
2022-10-20T09:49:37.393Z,101770.81
2022-10-20T09:52:34.272Z,101761.25
2022-10-20T09:55:30.218Z,101762.16
2022-10-20T09:58:05.272Z,101749.06
2022-10-20T10:00:44.959Z,101736.81
2022-10-20T10:03:22.669Z,101737.72
2022-10-20T10:05:58.111Z,101739.50
2022-10-20T10:08:54.934Z,101744.72
2022-10-20T10:11:35.928Z,101736.78
2022-10-20T10:14:23.691Z,101737.50
2022-10-20T10:16:56.332Z,101735.44
2022-10-20T10:19:32.557Z,101726.22
2022-10-20T10:22:05.051Z,101723.19
2022-10-20T10:24:40.245Z,101715.38
2022-10-20T10:27:28.869Z,101722.72
2022-10-20T10:30:33.142Z,101735.19
2022-10-20T10:33:37.509Z,101719.50
2022-10-20T10:36:28.276Z,101706.59
2022-10-20T10:39:00.982Z,101717.34
2022-10-20T10:42:19.261Z,101694.50
2022-10-20T10:45:19.536Z,101679.56
2022-10-20T10:48:19.336Z,101676.03
2022-10-20T10:50:59.035Z,101685.63
2022-10-20T10:54:16.064Z,101670.84
2022-10-20T10:56:59.756Z,101657.69
2022-10-20T10:59:43.683Z,101652.50
2022-10-20T11:02:33.016Z,101640.22
2022-10-20T11:05:19.183Z,101620.91
2022-10-20T11:08:19.157Z,101609.47
2022-10-20T11:11:20.218Z,101615.59
2022-10-20T11:14:28.722Z,101629.34
2022-10-20T11:17:39.297Z,101627.75
2022-10-20T11:20:35.339Z,101618.91
2022-10-20T11:23:40.692Z,101598.72
2022-10-20T11:26:26.741Z,101581.03
2022-10-20T11:29:05.784Z,101578.34
2022-10-20T11:31:52.059Z,101584.63
2022-10-20T11:34:58.165Z,101600.41
2022-10-20T11:37:50.028Z,101596.94
2022-10-20T11:40:35.676Z,101573.28
2022-10-20T11:43:36.143Z,101565.47
2022-10-20T11:46:22.184Z,101567.91
2022-10-20T11:48:58.109Z,101567.78
2022-10-20T11:51:31.988Z,101551.00
2022-10-20T11:54:49.367Z,101560.69
2022-10-20T11:57:33.045Z,101565.50
2022-10-20T12:00:33.877Z,101551.38
2022-10-20T12:03:33.494Z,101557.41
2022-10-20T12:06:46.613Z,101550.41
2022-10-20T12:09:48.062Z,101542.44
2022-10-20T12:13:13.182Z,101531.81
2022-10-20T12:15:51.531Z,101514.25
2022-10-20T12:18:34.289Z,101517.06
2022-10-20T12:21:10.543Z,101505.00
2022-10-20T12:23:45.689Z,101504.03
2022-10-20T12:27:08.141Z,101500.63
2022-10-20T12:29:43.015Z,101493.78
2022-10-20T12:32:55.513Z,101495.25
2022-10-20T12:35:30.329Z,101490.88
2022-10-20T12:38:04.648Z,101489.75
2022-10-20T12:40:50.533Z,101505.16
2022-10-20T12:43:28.907Z,101501.88
2022-10-20T12:49:22.873Z,101495.75
2022-10-20T12:51:57.869Z,101503.63
2022-10-20T12:54:40.557Z,101503.63
2022-10-20T12:57:41.416Z,101497.47
2022-10-20T13:00:19.160Z,101491.41
2022-10-20T13:02:52.789Z,101491.41
2022-10-20T13:05:44.283Z,101481.69
2022-10-20T13:08:19.197Z,101494.03
2022-10-20T13:10:53.965Z,101486.16
2022-10-20T13:13:25.844Z,101480.78
2022-10-20T13:15:58.544Z,101486.00
2022-10-20T13:18:47.354Z,101487.84
2022-10-20T13:21:34.016Z,101487.88
2022-10-20T13:24:24.728Z,101486.19
2022-10-20T13:27:04.242Z,101492.47
2022-10-20T13:29:43.740Z,101495.13
2022-10-20T13:33:10.831Z,101493.38
2022-10-20T13:35:53.069Z,101494.16
2022-10-20T13:38:43.571Z,101490.66
2022-10-20T13:41:49.382Z,101484.66
2022-10-20T13:44:32.245Z,101481.16
2022-10-20T13:47:50.221Z,101487.25
2022-10-20T13:51:11.124Z,101478.56
2022-10-20T13:53:46.486Z,101468.28
2022-10-20T13:56:18.412Z,101457.72
2022-10-20T13:59:06.756Z,101461.13
2022-10-20T14:01:38.667Z,101451.41
2022-10-20T14:04:30.620Z,101453.97
2022-10-20T14:07:16.799Z,101454.19
2022-10-20T14:09:58.339Z,101459.47
2022-10-20T14:12:32.581Z,101463.91
2022-10-20T14:15:07.107Z,101463.91
2022-10-20T14:17:40.864Z,101461.34
2022-10-20T14:20:22.269Z,101459.66
2022-10-20T14:22:55.004Z,101456.19
2022-10-20T14:25:28.978Z,101465.81
2022-10-20T14:28:05.138Z,101460.59
2022-10-20T14:30:41.101Z,101457.91
2022-10-20T14:33:16.932Z,101466.72
2022-10-20T14:35:58.625Z,101459.63
2022-10-20T14:38:39.074Z,101454.44
2022-10-20T14:41:11.030Z,101457.09
2022-10-20T14:43:48.053Z,101458.88
2022-10-20T14:46:36.117Z,101447.41
2022-10-20T14:49:36.180Z,101452.75
2022-10-20T14:52:20.357Z,101446.56
2022-10-20T14:54:53.607Z,101452.75
2022-10-20T14:57:26.080Z,101454.56
2022-10-20T15:00:26.695Z,101454.59
2022-10-20T15:03:03.421Z,101447.53
2022-10-20T15:05:45.385Z,101445.75
2022-10-20T15:08:26.801Z,101443.06
2022-10-20T15:10:59.702Z,101445.69
2022-10-20T15:13:34.000Z,101450.09
2022-10-20T15:16:08.065Z,101452.91
2022-10-20T15:18:40.187Z,101433.78
2022-10-20T15:21:12.197Z,101447.91
2022-10-20T15:23:44.266Z,101444.44
2022-10-20T15:26:16.242Z,101454.16
2022-10-20T15:28:50.653Z,101443.69
2022-10-20T15:31:27.028Z,101449.00
2022-10-20T15:33:59.360Z,101449.03
2022-10-20T15:36:34.209Z,101447.34
2022-10-20T15:39:06.437Z,101430.75
2022-10-20T15:41:39.479Z,101439.47
2022-10-20T15:44:19.681Z,101429.84
2022-10-20T15:46:55.732Z,101419.38
2022-10-20T15:49:27.651Z,101412.44
2022-10-20T15:51:59.568Z,101415.94
2022-10-20T15:54:31.465Z,101409.78
2022-10-20T15:57:03.414Z,101407.22
2022-10-20T15:59:35.449Z,101390.63
2022-10-20T16:02:13.202Z,101400.22
2022-10-20T16:04:45.101Z,101398.50
2022-10-20T16:07:16.987Z,101395.88
2022-10-20T16:09:49.042Z,101391.50
2022-10-20T16:12:21.056Z,101387.16
2022-10-20T16:14:53.630Z,101381.03
2022-10-20T16:17:25.778Z,101375.78
2022-10-20T16:19:57.732Z,101373.19
2022-10-20T16:22:29.741Z,101385.44
2022-10-20T16:25:02.074Z,101380.16
2022-10-20T16:27:34.295Z,101369.69
2022-10-20T16:30:07.784Z,101365.34
2022-10-20T16:32:40.077Z,101365.38
2022-10-20T16:35:12.356Z,101372.41
2022-10-20T16:37:44.242Z,101362.81
2022-10-20T16:40:16.421Z,101369.84
2022-10-20T16:42:48.748Z,101375.09
2022-10-20T16:45:20.769Z,101371.59
2022-10-20T16:47:53.098Z,101382.09
2022-10-20T16:50:25.216Z,101378.63
2022-10-20T16:52:57.197Z,101370.75
2022-10-20T16:55:29.197Z,101363.78
2022-10-20T16:58:01.405Z,101352.44
2022-10-20T17:00:33.343Z,101340.19
2022-10-20T17:03:05.285Z,101326.22
2022-10-20T17:05:40.282Z,101336.72
2022-10-20T17:08:13.926Z,101336.75
2022-10-20T17:10:47.520Z,101314.91
2022-10-20T17:13:19.994Z,101292.22
2022-10-20T17:15:52.304Z,101285.19
2022-10-20T17:18:24.788Z,101323.63
2022-10-20T17:20:57.037Z,101315.78
2022-10-20T17:23:37.327Z,101318.38
2022-10-20T17:26:17.683Z,101310.50
2022-10-20T17:28:50.269Z,101318.38
2022-10-20T17:31:22.853Z,101317.47
2022-10-20T17:33:56.411Z,101321.81
2022-10-20T17:36:29.595Z,101319.22
2022-10-20T17:39:08.869Z,101326.19
2022-10-20T17:41:41.003Z,101305.25
2022-10-20T17:44:13.088Z,101310.50
2022-10-20T17:46:48.846Z,101310.47
2022-10-20T17:49:20.848Z,101314.00
2022-10-20T17:51:52.741Z,101324.47
2022-10-20T17:54:27.457Z,101295.66
2022-10-20T17:56:59.414Z,101290.41
2022-10-20T17:59:42.356Z,101311.34
2022-10-20T18:02:24.771Z,101288.66
2022-10-20T18:04:57.321Z,101288.66
2022-10-20T18:07:29.739Z,101288.69
2022-10-20T18:10:01.738Z,101307.88
2022-10-20T18:12:36.409Z,101318.38
2022-10-20T18:15:09.013Z,101308.75
2022-10-20T18:17:41.003Z,101302.63
2022-10-20T18:20:13.167Z,101307.00
2022-10-20T18:22:45.632Z,101313.97
2022-10-20T18:25:17.640Z,101298.28
2022-10-20T18:27:49.575Z,101298.28
2022-10-20T18:30:21.488Z,101289.56
2022-10-20T18:32:53.494Z,101287.84
2022-10-20T18:35:25.494Z,101284.34
2022-10-20T18:37:57.777Z,101286.13
2022-10-20T18:40:29.725Z,101289.63
2022-10-20T18:43:01.863Z,101280.03
2022-10-20T18:45:33.862Z,101281.78
2022-10-20T18:48:06.138Z,101272.16
2022-10-20T18:50:38.058Z,101263.44
2022-10-20T18:53:10.088Z,101270.41
2022-10-20T18:55:41.999Z,101253.81
2022-10-20T18:58:13.978Z,101237.22
2022-10-20T19:00:45.975Z,101245.09
2022-10-20T19:03:18.094Z,101245.94
2022-10-20T19:05:50.414Z,101245.91
2022-10-20T19:08:22.538Z,101247.63
2022-10-20T19:10:54.672Z,101250.28
2022-10-20T19:13:30.662Z,101253.75
2022-10-20T19:16:12.095Z,101246.75
2022-10-20T19:18:50.134Z,101259.88
2022-10-20T19:21:24.271Z,101258.19
2022-10-20T19:24:07.265Z,101242.47
2022-10-20T19:26:43.061Z,101253.81
2022-10-20T19:29:17.994Z,101234.59
2022-10-20T19:32:00.253Z,101244.22
2022-10-20T19:34:41.940Z,101233.75
2022-10-20T19:37:13.895Z,101234.63
2022-10-20T19:39:45.886Z,101239.84
2022-10-20T19:42:17.881Z,101237.25
2022-10-20T19:44:50.076Z,101225.94
2022-10-20T19:47:22.786Z,101232.94
2022-10-20T19:49:54.737Z,101229.44
2022-10-20T19:52:26.737Z,101223.34
2022-10-20T19:54:58.758Z,101225.94
2022-10-20T19:57:31.082Z,101222.44
2022-10-20T20:00:04.316Z,101218.09
2022-10-20T20:02:37.587Z,101215.50
2022-10-20T20:05:09.805Z,101214.63
2022-10-20T20:07:41.955Z,101218.09
2022-10-20T20:10:14.018Z,101206.75
2022-10-20T20:12:45.920Z,101203.25
2022-10-20T20:15:18.031Z,101204.09
2022-10-20T20:17:49.988Z,101211.06
2022-10-20T20:20:22.789Z,101206.75
2022-10-20T20:22:55.271Z,101200.66
2022-10-20T20:25:27.344Z,101207.63
2022-10-20T20:27:59.337Z,101200.63
2022-10-20T20:30:32.577Z,101207.63
2022-10-20T20:33:05.046Z,101196.28
2022-10-20T20:35:37.009Z,101200.63
2022-10-20T20:38:08.972Z,101200.66
2022-10-20T20:40:46.672Z,101198.03
2022-10-20T20:43:18.826Z,101188.44
2022-10-20T20:45:50.736Z,101194.56
2022-10-20T20:48:23.073Z,101191.03
2022-10-20T20:50:57.210Z,101198.03
2022-10-20T20:53:29.441Z,101186.69
2022-10-20T20:56:12.087Z,101190.16
2022-10-20T20:58:49.131Z,101195.41
2022-10-20T21:01:31.736Z,101191.94
2022-10-20T21:04:10.276Z,101185.81
2022-10-20T21:07:01.214Z,101189.31
2022-10-20T21:09:34.790Z,101184.94
2022-10-20T21:12:06.798Z,101191.94
2022-10-20T21:14:39.593Z,101188.41
2022-10-20T21:17:11.756Z,101198.91
2022-10-20T21:19:43.969Z,101200.66
2022-10-20T21:22:15.959Z,101189.31
2022-10-20T21:24:47.948Z,101180.56
2022-10-20T21:27:19.923Z,101178.81
2022-10-20T21:29:51.978Z,101181.47
2022-10-20T21:32:23.909Z,101191.94
2022-10-20T21:34:55.920Z,101188.44
2022-10-20T21:37:28.875Z,101195.41
2022-10-20T21:40:00.979Z,101184.94
2022-10-20T21:42:32.973Z,101173.59
2022-10-20T21:45:05.397Z,101177.06
2022-10-20T21:47:37.309Z,101180.56
2022-10-20T21:50:09.425Z,101186.66
2022-10-20T21:52:41.428Z,101176.19
2022-10-20T21:55:13.715Z,101172.72
2022-10-20T21:57:45.695Z,101179.69
2022-10-20T22:00:21.833Z,101171.84
2022-10-20T22:02:55.947Z,101188.41
2022-10-20T22:05:28.051Z,101173.59
2022-10-20T22:08:00.030Z,101176.22
2022-10-20T22:10:31.996Z,101184.06
2022-10-20T22:13:04.852Z,101184.06
2022-10-20T22:15:38.646Z,101182.31
2022-10-20T22:18:10.762Z,101187.53
2022-10-20T22:20:42.936Z,101195.41
2022-10-20T22:23:15.269Z,101203.25
2022-10-20T22:25:47.234Z,101194.53
2022-10-20T22:28:19.470Z,101184.97
2022-10-20T22:30:51.482Z,101189.31
2022-10-20T22:33:23.797Z,101193.66
2022-10-20T22:35:55.813Z,101194.53
2022-10-20T22:38:27.952Z,101190.16
2022-10-20T22:41:01.635Z,101191.91
2022-10-20T22:43:33.722Z,101196.28
2022-10-20T22:46:06.075Z,101187.56
2022-10-20T22:48:38.299Z,101180.56
2022-10-20T22:51:11.162Z,101181.47
2022-10-20T22:53:43.383Z,101192.81
2022-10-20T22:56:18.982Z,101176.22
2022-10-20T22:58:53.808Z,101170.97
2022-10-20T23:01:25.853Z,101169.22
2022-10-20T23:03:58.125Z,101178.84
2022-10-20T23:06:30.063Z,101178.81
2022-10-20T23:09:02.305Z,101178.84
2022-10-20T23:11:35.219Z,101189.28
2022-10-20T23:14:07.147Z,101183.13
2022-10-20T23:16:39.062Z,101174.38
2022-10-20T23:19:11.190Z,101182.19
2022-10-20T23:21:43.098Z,101176.91
2022-10-20T23:24:15.080Z,101181.28
2022-10-20T23:26:46.979Z,101175.19
2022-10-20T23:29:19.020Z,101175.16
2022-10-20T23:31:50.930Z,101169.91
2022-10-20T23:34:23.345Z,101172.53
2022-10-20T23:36:55.311Z,101158.59
2022-10-20T23:39:27.307Z,101167.31
2022-10-20T23:42:02.310Z,101165.53
2022-10-20T23:44:38.356Z,101157.75
2022-10-20T23:47:10.239Z,101159.50
2022-10-20T23:49:42.166Z,101147.31
2022-10-20T23:52:14.084Z,101140.34
2022-10-20T23:54:46.033Z,101143.78
2022-10-20T23:57:18.130Z,101141.13
2022-10-20T23:59:50.042Z,101135.88
